Time;durP1;ratioP1;P1;durP2;ratioP2;P2;SDS_P1;SDS_P2;PMS_P1;PMS_P2;Temp;Humidity;BMP_temperature;BMP_pressure;BME280_temperature;BME280_humidity;BME280_pressure;Samples;Min_cycle;Max_cycle;Signal;HPM_P1;HPM_P2
2021/09/02 00:00:05;;;;;;;10.93;7.20;;;;;;;;;;4931100;29;20035;-51
2021/09/02 00:02:32;;;;;;;10.68;6.85;;;;;;;;;;4901563;29;20044;-48
2021/09/02 00:04:59;;;;;;;11.18;7.00;;;;;;;;;;4914122;29;20086;-47
2021/09/02 00:07:26;;;;;;;11.30;6.85;;;;;;;;;;4916859;29;20048;-48
2021/09/02 00:09:53;;;;;;;9.02;6.38;;;;;;;;;;4916640;29;20048;-49
2021/09/02 00:12:20;;;;;;;10.82;6.75;;;;;;;;;;4915532;29;20099;-49
2021/09/02 00:14:47;;;;;;;9.98;7.55;;;;;;;;;;4897615;29;20045;-50
2021/09/02 00:17:13;;;;;;;10.23;7.20;;;;;;;;;;4909992;29;20411;-48
2021/09/02 00:19:40;;;;;;;9.38;6.95;;;;;;;;;;4916695;29;20044;-46
2021/09/02 00:22:07;;;;;;;9.02;6.70;;;;;;;;;;4914145;29;20161;-48
2021/09/02 00:24:35;;;;;;;10.75;7.30;;;;;;;;;;4914749;29;20158;-50
2021/09/02 00:27:10;;;;;;;10.38;6.90;;;;;;;;;;4916403;29;20080;-47
2021/09/02 00:29:37;;;;;;;11.02;7.78;;;;;;;;;;4915684;29;20048;-48
2021/09/02 00:32:04;;;;;;;10.25;7.50;;;;;;;;;;4909677;29;20075;-50
2021/09/02 00:34:30;;;;;;;10.73;6.88;;;;;;;;;;4911398;29;20044;-48
2021/09/02 00:36:57;;;;;;;11.30;7.30;;;;;;;;;;4916287;29;20187;-48
2021/09/02 00:39:24;;;;;;;10.57;6.95;;;;;;;;;;4904182;29;20454;-52
2021/09/02 00:41:51;;;;;;;10.15;7.20;;;;;;;;;;4916317;29;20052;-50
2021/09/02 00:44:35;;;;;;;11.25;7.57;;;;;;;;;;4902091;29;20057;-48
2021/09/02 00:47:03;;;;;;;10.00;6.88;;;;;;;;;;4897375;29;20045;-49
2021/09/02 00:49:30;;;;;;;9.52;6.82;;;;;;;;;;4898549;29;20053;-47
2021/09/02 00:51:58;;;;;;;10.88;6.93;;;;;;;;;;4897297;29;20123;-52
2021/09/02 00:54:25;;;;;;;9.85;6.82;;;;;;;;;;4910903;29;20410;-48
2021/09/02 00:56:52;;;;;;;9.45;6.97;;;;;;;;;;4916442;29;20218;-50
2021/09/02 00:59:19;;;;;;;11.77;7.13;;;;;;;;;;4903031;29;20049;-48
2021/09/02 01:01:45;;;;;;;12.27;6.90;;;;;;;;;;4897211;29;20139;-49
2021/09/02 01:04:12;;;;;;;10.35;8.18;;;;;;;;;;4902675;29;20135;-50
2021/09/02 01:06:39;;;;;;;11.23;6.95;;;;;;;;;;4896063;29;20071;-47
2021/09/02 01:09:06;;;;;;;11.07;7.22;;;;;;;;;;4897982;29;20054;-49
2021/09/02 01:11:47;;;;;;;12.02;7.80;;;;;;;;;;4896736;29;20254;-52
2021/09/02 01:14:15;;;;;;;12.38;7.35;;;;;;;;;;4911052;29;20070;-50
2021/09/02 01:16:42;;;;;;;11.55;7.32;;;;;;;;;;4915677;29;20148;-49
2021/09/02 01:19:09;;;;;;;9.95;7.25;;;;;;;;;;4914687;29;20420;-49
2021/09/02 01:21:35;;;;;;;10.27;7.43;;;;;;;;;;4911340;29;20104;-47
2021/09/02 01:24:02;;;;;;;10.43;7.15;;;;;;;;;;4902368;29;20494;-51
2021/09/02 01:26:29;;;;;;;10.23;6.93;;;;;;;;;;4914710;29;20139;-51
2021/09/02 01:28:56;;;;;;;9.77;6.88;;;;;;;;;;4905052;29;20051;-48
2021/09/02 01:31:22;;;;;;;11.40;7.28;;;;;;;;;;4902030;29;20055;-49
2021/09/02 01:33:50;;;;;;;10.65;7.28;;;;;;;;;;4907988;29;20053;-49
2021/09/02 01:36:17;;;;;;;9.52;7.22;;;;;;;;;;4903391;29;20044;-48
2021/09/02 01:38:44;;;;;;;9.18;6.95;;;;;;;;;;4915494;29;20044;-48
2021/09/02 01:41:11;;;;;;;10.73;7.30;;;;;;;;;;4905495;29;20055;-52
2021/09/02 01:43:38;;;;;;;11.98;6.97;;;;;;;;;;4896810;29;20506;-50
2021/09/02 01:46:05;;;;;;;11.35;7.28;;;;;;;;;;4903971;29;20043;-48
2021/09/02 01:48:33;;;;;;;9.75;6.97;;;;;;;;;;4903390;29;20495;-50
2021/09/02 01:51:00;;;;;;;9.73;6.85;;;;;;;;;;4904152;29;20062;-52
2021/09/02 01:53:27;;;;;;;10.15;6.90;;;;;;;;;;4915037;29;20048;-48
2021/09/02 01:55:54;;;;;;;9.60;6.97;;;;;;;;;;4915056;29;20090;-49
2021/09/02 01:58:21;;;;;;;10.70;6.72;;;;;;;;;;4906223;29;20127;-49
2021/09/02 02:00:48;;;;;;;9.57;6.85;;;;;;;;;;4908302;29;20470;-53
2021/09/02 02:03:15;;;;;;;9.32;6.55;;;;;;;;;;4907101;29;20058;-49
2021/09/02 02:05:42;;;;;;;9.88;7.10;;;;;;;;;;4906806;29;20127;-49
2021/09/02 02:08:13;;;;;;;9.63;6.90;;;;;;;;;;4914468;29;20491;-51
2021/09/02 02:10:39;;;;;;;9.50;7.03;;;;;;;;;;4915405;29;20126;-51
2021/09/02 02:13:06;;;;;;;10.43;6.85;;;;;;;;;;4906521;29;20048;-50
2021/09/02 02:15:33;;;;;;;10.55;7.57;;;;;;;;;;4915003;29;20048;-50
2021/09/02 02:17:59;;;;;;;9.57;6.72;;;;;;;;;;4910180;29;20041;-52
2021/09/02 02:20:26;;;;;;;9.38;6.82;;;;;;;;;;4896545;29;20087;-52
2021/09/02 02:22:53;;;;;;;8.52;6.20;;;;;;;;;;4896174;29;20048;-50
2021/09/02 02:25:20;;;;;;;9.13;7.10;;;;;;;;;;4914520;29;20059;-49
2021/09/02 02:27:47;;;;;;;10.05;7.25;;;;;;;;;;4914451;29;20051;-49
2021/09/02 02:30:21;;;;;;;8.90;6.70;;;;;;;;;;4902010;29;20053;-49
2021/09/02 02:32:48;;;;;;;9.75;6.68;;;;;;;;;;4904217;29;20139;-47
2021/09/02 02:35:15;;;;;;;11.20;6.60;;;;;;;;;;4899464;29;20423;-47
2021/09/02 02:37:42;;;;;;;11.27;7.30;;;;;;;;;;4911039;29;20050;-52
2021/09/02 02:40:09;;;;;;;9.88;7.05;;;;;;;;;;4899582;29;20048;-48
2021/09/02 02:42:36;;;;;;;10.75;7.47;;;;;;;;;;4909328;29;20541;-49
2021/09/02 02:45:03;;;;;;;8.63;6.75;;;;;;;;;;4903817;29;20430;-51
2021/09/02 02:47:30;;;;;;;9.40;6.97;;;;;;;;;;4911506;29;20048;-48
2021/09/02 02:49:57;;;;;;;9.88;7.68;;;;;;;;;;4903602;29;20051;-50
2021/09/02 02:52:23;;;;;;;9.80;6.88;;;;;;;;;;4910202;29;20127;-49
2021/09/02 02:54:50;;;;;;;11.82;7.95;;;;;;;;;;4901252;29;20057;-51
2021/09/02 02:57:17;;;;;;;10.85;7.22;;;;;;;;;;4921812;23;20061;-57
2021/09/02 02:59:44;;;;;;;9.68;7.00;;;;;;;;;;4917333;29;20505;-58
2021/09/02 03:02:11;;;;;;;8.70;6.03;;;;;;;;;;4917661;29;20130;-57
2021/09/02 03:04:38;;;;;;;8.82;7.05;;;;;;;;;;4911361;29;20052;-57
2021/09/02 03:07:05;;;;;;;9.93;6.80;;;;;;;;;;4927408;29;20045;-56
2021/09/02 03:09:32;;;;;;;9.55;6.75;;;;;;;;;;4916242;29;20123;-57
2021/09/02 03:11:59;;;;;;;10.55;7.13;;;;;;;;;;4910384;29;20128;-56
2021/09/02 03:14:26;;;;;;;10.88;6.88;;;;;;;;;;4898506;29;20040;-60
2021/09/02 03:16:53;;;;;;;10.52;7.55;;;;;;;;;;4914695;29;20047;-58
2021/09/02 03:19:20;;;;;;;9.05;6.50;;;;;;;;;;4901085;29;20051;-56
2021/09/02 03:21:46;;;;;;;9.40;6.60;;;;;;;;;;4899514;29;20045;-54
2021/09/02 03:24:13;;;;;;;16.20;8.18;;;;;;;;;;4897864;29;20048;-58
2021/09/02 03:26:40;;;;;;;12.07;7.38;;;;;;;;;;4898556;29;20521;-55
2021/09/02 03:29:06;;;;;;;10.75;7.93;;;;;;;;;;4898728;29;20045;-58
2021/09/02 03:31:33;;;;;;;9.73;6.72;;;;;;;;;;4899121;29;20080;-53
2021/09/02 03:34:00;;;;;;;11.20;7.47;;;;;;;;;;4897506;29;20434;-57
2021/09/02 03:36:27;;;;;;;10.85;6.97;;;;;;;;;;4898201;29;20044;-57
2021/09/02 03:38:55;;;;;;;10.90;7.00;;;;;;;;;;4899045;29;20040;-57
2021/09/02 03:41:22;;;;;;;10.50;7.43;;;;;;;;;;4901249;29;20150;-57
2021/09/02 03:43:49;;;;;;;9.32;6.60;;;;;;;;;;4908298;29;20413;-57
2021/09/02 03:46:16;;;;;;;10.63;7.00;;;;;;;;;;4898260;29;20044;-57
2021/09/02 03:48:42;;;;;;;10.80;7.80;;;;;;;;;;4901431;29;20036;-56
2021/09/02 03:51:09;;;;;;;10.80;7.32;;;;;;;;;;4910567;29;20070;-57
2021/09/02 03:53:36;;;;;;;9.10;7.00;;;;;;;;;;4914163;29;20032;-56
2021/09/02 03:56:03;;;;;;;11.13;7.30;;;;;;;;;;4916856;29;20050;-56
2021/09/02 03:58:29;;;;;;;10.77;7.47;;;;;;;;;;4916347;29;20044;-57
2021/09/02 04:00:56;;;;;;;11.30;7.43;;;;;;;;;;4908487;29;20041;-56
2021/09/02 04:03:23;;;;;;;9.93;7.22;;;;;;;;;;4915531;29;20048;-56
2021/09/02 04:05:50;;;;;;;10.07;7.45;;;;;;;;;;4898588;29;20429;-57
2021/09/02 04:08:17;;;;;;;11.85;8.38;;;;;;;;;;4897924;29;20049;-57
2021/09/02 04:10:43;;;;;;;10.45;7.40;;;;;;;;;;4914870;29;20127;-57
2021/09/02 04:13:10;;;;;;;9.45;7.18;;;;;;;;;;4897700;29;20037;-57
2021/09/02 04:15:37;;;;;;;9.05;6.97;;;;;;;;;;4897714;29;20052;-57
2021/09/02 04:18:04;;;;;;;9.40;7.03;;;;;;;;;;4897355;29;20045;-54
2021/09/02 04:20:30;;;;;;;9.32;7.40;;;;;;;;;;4897621;29;20063;-56
2021/09/02 04:22:57;;;;;;;10.57;7.25;;;;;;;;;;4897830;29;20137;-56
2021/09/02 04:25:24;;;;;;;11.23;8.25;;;;;;;;;;4896711;29;20048;-56
2021/09/02 04:27:50;;;;;;;13.02;8.15;;;;;;;;;;4897330;29;20049;-55
2021/09/02 04:30:17;;;;;;;11.52;7.95;;;;;;;;;;4907837;29;20076;-56
2021/09/02 04:32:44;;;;;;;11.18;8.35;;;;;;;;;;4899086;29;20048;-54
2021/09/02 04:35:12;;;;;;;14.40;8.02;;;;;;;;;;4896573;29;20037;-56
2021/09/02 04:37:41;;;;;;;10.98;7.65;;;;;;;;;;4897025;29;20135;-58
2021/09/02 04:40:08;;;;;;;10.10;7.68;;;;;;;;;;4906030;29;20452;-58
2021/09/02 04:42:35;;;;;;;12.10;8.27;;;;;;;;;;4904556;29;20045;-57
2021/09/02 04:45:03;;;;;;;10.75;8.15;;;;;;;;;;4896226;29;20045;-57
2021/09/02 04:47:30;;;;;;;10.25;8.20;;;;;;;;;;4895595;29;20060;-57
2021/09/02 04:49:57;;;;;;;11.60;8.18;;;;;;;;;;4897150;29;20060;-56
2021/09/02 04:52:24;;;;;;;11.07;8.20;;;;;;;;;;4905266;29;20036;-57
2021/09/02 04:54:51;;;;;;;12.60;8.15;;;;;;;;;;4913992;29;20044;-58
2021/09/02 04:57:19;;;;;;;13.85;9.57;;;;;;;;;;4915441;29;20032;-56
2021/09/02 04:59:46;;;;;;;12.32;8.63;;;;;;;;;;4911861;29;20075;-55
2021/09/02 05:02:13;;;;;;;13.65;8.38;;;;;;;;;;4907408;29;20052;-57
2021/09/02 05:04:40;;;;;;;10.90;7.45;;;;;;;;;;4895718;29;20079;-57
2021/09/02 05:07:07;;;;;;;12.05;8.45;;;;;;;;;;4896546;29;20037;-55
2021/09/02 05:09:34;;;;;;;9.60;7.78;;;;;;;;;;4896786;29;20044;-57
2021/09/02 05:12:14;;;;;;;11.85;8.23;;;;;;;;;;4903760;29;20492;-56
2021/09/02 05:14:41;;;;;;;10.65;7.88;;;;;;;;;;4900361;29;20069;-50
2021/09/02 05:17:09;;;;;;;11.60;7.95;;;;;;;;;;4894935;29;20403;-49
2021/09/02 05:19:35;;;;;;;11.52;7.70;;;;;;;;;;4880132;29;20036;-50
2021/09/02 05:22:02;;;;;;;11.75;8.18;;;;;;;;;;4905428;29;20032;-52
2021/09/02 05:24:29;;;;;;;11.68;8.00;;;;;;;;;;4895974;29;20131;-50
2021/09/02 05:26:56;;;;;;;11.52;8.20;;;;;;;;;;4879933;29;20053;-50
2021/09/02 05:29:23;;;;;;;12.85;9.05;;;;;;;;;;4895277;29;20045;-49
2021/09/02 05:31:50;;;;;;;13.30;8.55;;;;;;;;;;4901956;29;20044;-50
2021/09/02 05:34:16;;;;;;;11.57;8.13;;;;;;;;;;4914742;29;20044;-49
2021/09/02 05:36:43;;;;;;;10.98;8.48;;;;;;;;;;4913885;29;20461;-50
2021/09/02 05:39:10;;;;;;;13.25;9.25;;;;;;;;;;4907137;29;20458;-48
2021/09/02 05:41:37;;;;;;;11.18;8.52;;;;;;;;;;4904243;29;20048;-49
2021/09/02 05:44:05;;;;;;;11.45;8.85;;;;;;;;;;4905997;29;20479;-50
2021/09/02 05:46:31;;;;;;;13.13;8.73;;;;;;;;;;4896206;29;20127;-52
2021/09/02 05:48:58;;;;;;;11.05;8.15;;;;;;;;;;4896818;29;20045;-49
2021/09/02 05:51:25;;;;;;;12.20;7.78;;;;;;;;;;4880474;29;20140;-50
2021/09/02 05:53:52;;;;;;;14.02;9.77;;;;;;;;;;4912895;29;20040;-53
2021/09/02 05:56:18;;;;;;;13.60;8.98;;;;;;;;;;4898162;29;20079;-51
2021/09/02 05:58:45;;;;;;;11.93;8.35;;;;;;;;;;4908530;29;20064;-50
2021/09/02 06:01:14;;;;;;;13.70;9.65;;;;;;;;;;4895889;29;20414;-53
2021/09/02 06:03:42;;;;;;;16.95;9.10;;;;;;;;;;4912998;29;20051;-53
2021/09/02 06:06:09;;;;;;;12.48;8.55;;;;;;;;;;4896620;29;20049;-49
2021/09/02 06:08:35;;;;;;;11.18;8.57;;;;;;;;;;4902601;29;20076;-48
2021/09/02 06:11:03;;;;;;;10.80;8.65;;;;;;;;;;4917584;29;20100;-53
2021/09/02 06:13:30;;;;;;;10.55;8.40;;;;;;;;;;4922737;29;20075;-49
2021/09/02 06:15:57;;;;;;;12.95;8.65;;;;;;;;;;4918702;29;20055;-51
2021/09/02 06:18:23;;;;;;;12.35;7.60;;;;;;;;;;4935426;29;20115;-50
2021/09/02 06:20:50;;;;;;;12.93;9.07;;;;;;;;;;4899433;29;20509;-54
2021/09/02 06:23:17;;;;;;;12.32;9.07;;;;;;;;;;4904106;29;20582;-50
2021/09/02 06:25:44;;;;;;;13.98;8.77;;;;;;;;;;4899506;29;20078;-55
2021/09/02 06:28:11;;;;;;;11.70;8.40;;;;;;;;;;4882760;29;20717;-48
2021/09/02 06:30:38;;;;;;;14.77;9.05;;;;;;;;;;4899423;29;20483;-53
2021/09/02 06:33:04;;;;;;;11.00;8.30;;;;;;;;;;4900522;29;20547;-52
2021/09/02 06:35:31;;;;;;;12.93;8.88;;;;;;;;;;4902452;29;20068;-53
2021/09/02 06:37:58;;;;;;;11.60;8.48;;;;;;;;;;4899407;29;20049;-51
2021/09/02 06:40:25;;;;;;;11.85;8.43;;;;;;;;;;4882254;29;20055;-53
2021/09/02 06:42:52;;;;;;;12.40;8.60;;;;;;;;;;4900321;29;20049;-51
2021/09/02 06:45:19;;;;;;;11.73;8.27;;;;;;;;;;4912342;29;20387;-53
2021/09/02 06:47:46;;;;;;;15.23;9.13;;;;;;;;;;4899172;29;20051;-49
2021/09/02 06:50:13;;;;;;;12.75;8.82;;;;;;;;;;4898189;29;20056;-49
2021/09/02 06:52:42;;;;;;;13.93;9.13;;;;;;;;;;4907092;29;20127;-49
2021/09/02 06:55:09;;;;;;;12.00;8.20;;;;;;;;;;4899980;29;20127;-49
2021/09/02 06:57:37;;;;;;;11.77;8.50;;;;;;;;;;4890128;29;20044;-49
2021/09/02 07:00:06;;;;;;;15.40;8.73;;;;;;;;;;4904431;29;20088;-49
2021/09/02 07:02:34;;;;;;;10.95;8.40;;;;;;;;;;4909889;29;20052;-52
2021/09/02 07:05:02;;;;;;;14.00;8.30;;;;;;;;;;4902411;29;20100;-52
2021/09/02 07:07:29;;;;;;;11.88;8.63;;;;;;;;;;4897749;29;20499;-50
2021/09/02 07:09:57;;;;;;;10.23;7.93;;;;;;;;;;4897466;29;20091;-54
2021/09/02 07:12:23;;;;;;;13.30;8.82;;;;;;;;;;4898521;29;20127;-53
2021/09/02 07:14:54;;;;;;;10.85;7.70;;;;;;;;;;4896652;29;20465;-55
2021/09/02 07:17:21;;;;;;;10.23;7.60;;;;;;;;;;4903735;29;20051;-53
2021/09/02 07:19:48;;;;;;;10.55;7.47;;;;;;;;;;4904751;29;20037;-50
2021/09/02 07:22:15;;;;;;;15.15;7.60;;;;;;;;;;4915772;29;20096;-54
2021/09/02 07:24:41;;;;;;;12.05;7.90;;;;;;;;;;4914595;29;20036;-52
2021/09/02 07:27:08;;;;;;;10.98;6.97;;;;;;;;;;4915836;29;20059;-50
2021/09/02 07:29:35;;;;;;;9.18;6.93;;;;;;;;;;4913192;29;20060;-53
2021/09/02 07:32:02;;;;;;;8.95;6.72;;;;;;;;;;4915909;29;20032;-51
2021/09/02 07:34:28;;;;;;;8.25;6.40;;;;;;;;;;4896887;29;20483;-50
2021/09/02 07:36:57;;;;;;;11.27;6.70;;;;;;;;;;4914407;29;20087;-50
2021/09/02 07:39:24;;;;;;;12.15;6.70;;;;;;;;;;4915462;29;20043;-51
2021/09/02 07:41:51;;;;;;;11.10;6.82;;;;;;;;;;4911000;29;20100;-49
2021/09/02 07:44:18;;;;;;;8.80;6.45;;;;;;;;;;4912230;29;20135;-50
2021/09/02 07:46:45;;;;;;;9.57;6.35;;;;;;;;;;4915007;29;20054;-51
2021/09/02 07:49:12;;;;;;;9.05;6.10;;;;;;;;;;4901963;29;20048;-52
2021/09/02 07:51:41;;;;;;;9.23;6.28;;;;;;;;;;4927766;29;20042;-50
2021/09/02 07:54:08;;;;;;;8.93;6.50;;;;;;;;;;4916064;29;20119;-51
2021/09/02 07:56:34;;;;;;;13.02;6.45;;;;;;;;;;4912512;29;20050;-49
2021/09/02 07:59:05;;;;;;;9.20;5.75;;;;;;;;;;4905880;29;20104;-53
2021/09/02 08:01:32;;;;;;;9.80;6.28;;;;;;;;;;4909395;29;20056;-50
2021/09/02 08:03:59;;;;;;;8.40;6.00;;;;;;;;;;4912197;29;20049;-50
2021/09/02 08:06:26;;;;;;;10.43;6.45;;;;;;;;;;4913490;29;20048;-49
2021/09/02 08:08:53;;;;;;;8.70;5.93;;;;;;;;;;4914492;29;20044;-51
2021/09/02 08:11:19;;;;;;;13.52;5.80;;;;;;;;;;4901115;29;20040;-49
2021/09/02 08:13:46;;;;;;;7.75;5.70;;;;;;;;;;4913919;29;20044;-49
2021/09/02 08:16:13;;;;;;;8.35;5.28;;;;;;;;;;4914823;29;20474;-53
2021/09/02 08:18:40;;;;;;;8.15;5.78;;;;;;;;;;4908629;29;20482;-52
2021/09/02 08:21:07;;;;;;;8.88;5.25;;;;;;;;;;4915330;29;20051;-52
2021/09/02 08:23:34;;;;;;;6.28;4.72;;;;;;;;;;4915870;29;20447;-46
2021/09/02 08:26:01;;;;;;;7.65;4.88;;;;;;;;;;4916278;29;20111;-47
2021/09/02 08:28:27;;;;;;;9.88;5.43;;;;;;;;;;4905474;29;20056;-52
2021/09/02 08:30:54;;;;;;;6.82;4.85;;;;;;;;;;4912104;29;20402;-47
2021/09/02 08:33:23;;;;;;;6.43;4.95;;;;;;;;;;4915534;29;20063;-47
2021/09/02 08:35:51;;;;;;;7.05;5.38;;;;;;;;;;4912662;29;20052;-54
2021/09/02 08:38:18;;;;;;;5.72;4.22;;;;;;;;;;4914508;29;20044;-49
2021/09/02 08:40:46;;;;;;;8.65;4.45;;;;;;;;;;4916237;29;20044;-48
2021/09/02 08:43:13;;;;;;;6.80;4.47;;;;;;;;;;4904320;29;20506;-52
2021/09/02 08:45:59;;;;;;;7.07;4.53;;;;;;;;;;4915986;29;20044;-49
2021/09/02 08:48:27;;;;;;;8.25;4.57;;;;;;;;;;4915497;29;20048;-53
2021/09/02 08:50:53;;;;;;;7.95;4.63;;;;;;;;;;4915898;29;20056;-48
2021/09/02 08:53:21;;;;;;;8.07;4.95;;;;;;;;;;4899081;29;20048;-51
2021/09/02 08:55:48;;;;;;;7.65;4.50;;;;;;;;;;4898531;29;20506;-49
2021/09/02 08:58:15;;;;;;;8.15;4.72;;;;;;;;;;4914046;29;20124;-55
2021/09/02 09:00:41;;;;;;;6.40;4.45;;;;;;;;;;4908350;29;20164;-49
2021/09/02 09:03:08;;;;;;;7.28;4.40;;;;;;;;;;4903932;29;20072;-52
2021/09/02 09:05:36;;;;;;;7.32;4.80;;;;;;;;;;4911205;29;20413;-52
2021/09/02 09:08:12;;;;;;;6.50;4.55;;;;;;;;;;4914128;29;20044;-49
2021/09/02 09:10:39;;;;;;;7.85;4.60;;;;;;;;;;4915564;29;20470;-49
2021/09/02 09:13:10;;;;;;;8.52;4.60;;;;;;;;;;4911446;29;20044;-56
2021/09/02 09:15:38;;;;;;;7.63;4.93;;;;;;;;;;4914245;29;20099;-47
2021/09/02 09:18:15;;;;;;;7.13;4.68;;;;;;;;;;4914729;29;20052;-50
2021/09/02 09:20:42;;;;;;;7.88;4.63;;;;;;;;;;4913041;29;20051;-50
2021/09/02 09:23:10;;;;;;;6.85;4.78;;;;;;;;;;4900660;29;20055;-51
2021/09/02 09:25:37;;;;;;;7.13;4.25;;;;;;;;;;4903342;29;20427;-51
2021/09/02 09:28:03;;;;;;;8.38;4.68;;;;;;;;;;4913404;29;20055;-50
2021/09/02 09:30:31;;;;;;;9.18;4.90;;;;;;;;;;4911869;29;20566;-55
2021/09/02 09:33:03;;;;;;;6.38;4.85;;;;;;;;;;4910730;29;20405;-52
2021/09/02 09:35:37;;;;;;;8.38;4.28;;;;;;;;;;4901852;29;20502;-48
2021/09/02 09:38:04;;;;;;;7.25;4.72;;;;;;;;;;4914131;29;20047;-49
2021/09/02 09:40:31;;;;;;;7.47;5.47;;;;;;;;;;4914238;29;20071;-52
2021/09/02 09:43:00;;;;;;;7.47;5.13;;;;;;;;;;4913170;29;20047;-49
2021/09/02 09:45:35;;;;;;;6.95;4.93;;;;;;;;;;4904339;29;20131;-49
2021/09/02 09:48:02;;;;;;;6.68;4.88;;;;;;;;;;4913896;29;20043;-47
2021/09/02 09:50:30;;;;;;;6.63;4.70;;;;;;;;;;4912544;29;20152;-49
2021/09/02 09:52:56;;;;;;;5.30;4.30;;;;;;;;;;4909254;29;20040;-48
2021/09/02 09:55:23;;;;;;;7.20;4.57;;;;;;;;;;4911945;29;20048;-48
2021/09/02 09:57:50;;;;;;;7.07;4.75;;;;;;;;;;4914206;29;20044;-51
2021/09/02 10:00:18;;;;;;;6.63;4.38;;;;;;;;;;4914138;29;20036;-48
2021/09/02 10:02:47;;;;;;;12.45;4.90;;;;;;;;;;4911243;29;20155;-48
2021/09/02 10:05:15;;;;;;;7.32;4.55;;;;;;;;;;4901524;29;20076;-49
2021/09/02 10:07:45;;;;;;;6.30;4.88;;;;;;;;;;4910028;29;20131;-48
2021/09/02 10:10:14;;;;;;;6.97;4.88;;;;;;;;;;4914285;29;20056;-48
2021/09/02 10:12:42;;;;;;;6.47;4.93;;;;;;;;;;4916956;29;20051;-48
2021/09/02 10:15:19;;;;;;;6.57;4.50;;;;;;;;;;4910944;29;20127;-49
2021/09/02 10:17:46;;;;;;;7.30;4.65;;;;;;;;;;4914263;29;20045;-47
2021/09/02 10:20:17;;;;;;;6.07;4.10;;;;;;;;;;4914028;29;20088;-49
2021/09/02 10:22:45;;;;;;;7.30;4.30;;;;;;;;;;4911730;29;20045;-48
2021/09/02 10:25:29;;;;;;;6.70;4.68;;;;;;;;;;4914186;29;20044;-50
2021/09/02 10:27:59;;;;;;;7.47;4.65;;;;;;;;;;4911565;29;20173;-47
2021/09/02 10:30:27;;;;;;;55.88;6.97;;;;;;;;;;4909845;29;20048;-46
2021/09/02 10:32:55;;;;;;;10.38;5.43;;;;;;;;;;4905490;29;20120;-46
2021/09/02 10:35:21;;;;;;;8.02;4.30;;;;;;;;;;4909952;29;20040;-47
2021/09/02 10:37:52;;;;;;;7.05;4.68;;;;;;;;;;4912976;29;20075;-46
2021/09/02 10:40:18;;;;;;;9.75;4.63;;;;;;;;;;4913466;29;20040;-45
2021/09/02 10:42:49;;;;;;;10.23;4.45;;;;;;;;;;4913441;29;20063;-47
2021/09/02 10:45:25;;;;;;;8.73;4.43;;;;;;;;;;4908288;29;20052;-45
2021/09/02 10:48:06;;;;;;;7.00;4.63;;;;;;;;;;4913917;29;20052;-48
2021/09/02 10:50:40;;;;;;;10.55;4.97;;;;;;;;;;4896187;29;20055;-44
2021/09/02 10:53:10;;;;;;;5.25;4.07;;;;;;;;;;4906510;29;20048;-47
2021/09/02 10:55:39;;;;;;;6.82;4.30;;;;;;;;;;4917306;29;20482;-47
2021/09/02 10:58:06;;;;;;;5.68;3.83;;;;;;;;;;4915473;29;20048;-48
2021/09/02 11:00:33;;;;;;;6.97;4.05;;;;;;;;;;4914868;29;20040;-47
2021/09/02 11:03:21;;;;;;;8.00;5.13;;;;;;;;;;4907285;29;20080;-47
2021/09/02 11:05:53;;;;;;;5.60;4.35;;;;;;;;;;4903006;29;20078;-44
2021/09/02 11:08:32;;;;;;;7.20;4.32;;;;;;;;;;4916035;29;20405;-46
2021/09/02 11:11:17;;;;;;;6.03;4.25;;;;;;;;;;4905238;29;20498;-45
2021/09/02 11:13:45;;;;;;;7.30;4.25;;;;;;;;;;4907870;29;20067;-46
2021/09/02 11:16:14;;;;;;;5.05;4.10;;;;;;;;;;4911859;29;20044;-43
2021/09/02 11:18:42;;;;;;;7.18;4.15;;;;;;;;;;4916284;29;20139;-46
2021/09/02 11:21:15;;;;;;;6.05;4.10;;;;;;;;;;4907075;29;20414;-45
2021/09/02 11:23:45;;;;;;;5.35;3.88;;;;;;;;;;4909664;29;20070;-44
2021/09/02 11:26:30;;;;;;;7.22;4.65;;;;;;;;;;4911556;29;20072;-50
2021/09/02 11:28:57;;;;;;;8.10;4.18;;;;;;;;;;4916026;29;20520;-49
2021/09/02 11:31:24;;;;;;;7.72;3.83;;;;;;;;;;4917199;29;20491;-48
2021/09/02 11:33:52;;;;;;;5.20;3.83;;;;;;;;;;4908626;29;20054;-46
2021/09/02 11:36:19;;;;;;;5.88;4.22;;;;;;;;;;4916909;29;20048;-45
2021/09/02 11:38:47;;;;;;;8.00;4.50;;;;;;;;;;4915757;29;20048;-45
2021/09/02 11:41:22;;;;;;;4.78;3.50;;;;;;;;;;4915173;29;20052;-48
2021/09/02 11:43:51;;;;;;;7.20;3.55;;;;;;;;;;4899265;29;20497;-46
2021/09/02 11:46:18;;;;;;;5.13;3.67;;;;;;;;;;4896955;29;20053;-45
2021/09/02 11:48:52;;;;;;;6.75;4.18;;;;;;;;;;4898149;29;20128;-44
2021/09/02 11:51:32;;;;;;;6.93;3.97;;;;;;;;;;4898282;29;20052;-45
2021/09/02 11:54:03;;;;;;;4.60;3.50;;;;;;;;;;4897896;29;20064;-45
2021/09/02 11:56:31;;;;;;;7.28;4.25;;;;;;;;;;4898204;29;20043;-47
2021/09/02 11:58:58;;;;;;;6.10;4.00;;;;;;;;;;4897977;29;20048;-47
2021/09/02 12:01:25;;;;;;;5.15;4.05;;;;;;;;;;4913542;29;20135;-50
2021/09/02 12:03:52;;;;;;;7.78;4.25;;;;;;;;;;4912792;29;20044;-45
2021/09/02 12:06:29;;;;;;;5.50;4.03;;;;;;;;;;4897986;29;20072;-47
2021/09/02 12:08:57;;;;;;;7.13;3.92;;;;;;;;;;4898318;29;20131;-45
2021/09/02 12:11:24;;;;;;;7.40;4.03;;;;;;;;;;4910307;29;20135;-46
2021/09/02 12:13:54;;;;;;;5.05;3.60;;;;;;;;;;4901529;29;20052;-48
2021/09/02 12:16:22;;;;;;;5.75;4.05;;;;;;;;;;4897661;29;20055;-47
2021/09/02 12:18:57;;;;;;;5.20;3.50;;;;;;;;;;4896464;29;20211;-48
2021/09/02 12:21:25;;;;;;;5.18;3.53;;;;;;;;;;4908407;29;20472;-49
2021/09/02 12:23:52;;;;;;;5.13;3.70;;;;;;;;;;4900878;29;20040;-48
2021/09/02 12:26:20;;;;;;;4.70;3.40;;;;;;;;;;4897567;29;20060;-47
2021/09/02 12:28:49;;;;;;;6.70;4.95;;;;;;;;;;4897364;29;20084;-48
2021/09/02 12:31:20;;;;;;;5.35;3.80;;;;;;;;;;4897928;29;20048;-49
2021/09/02 12:33:59;;;;;;;5.38;3.75;;;;;;;;;;4897012;29;20524;-46
2021/09/02 12:36:26;;;;;;;5.55;4.22;;;;;;;;;;4896354;29;20068;-50
2021/09/02 12:38:53;;;;;;;5.72;3.33;;;;;;;;;;4897232;29;20056;-47
2021/09/02 12:41:23;;;;;;;7.40;4.32;;;;;;;;;;4902259;29;20052;-48
2021/09/02 12:44:00;;;;;;;7.75;4.10;;;;;;;;;;4905008;29;20429;-48
2021/09/02 12:46:27;;;;;;;5.78;3.50;;;;;;;;;;4897212;29;20131;-47
2021/09/02 12:49:09;;;;;;;4.72;3.33;;;;;;;;;;4897079;29;20060;-46
2021/09/02 12:51:36;;;;;;;5.25;3.65;;;;;;;;;;4901335;29;20131;-48
2021/09/02 12:54:03;;;;;;;10.52;3.88;;;;;;;;;;4913943;29;20048;-45
2021/09/02 12:56:35;;;;;;;5.72;3.38;;;;;;;;;;4915660;29;20044;-47
2021/09/02 12:59:05;;;;;;;5.75;3.53;;;;;;;;;;4915897;29;20050;-48
2021/09/02 13:01:32;;;;;;;4.30;3.30;;;;;;;;;;4909409;29;20099;-50
2021/09/02 13:04:00;;;;;;;5.30;3.30;;;;;;;;;;4911210;29;20147;-46
2021/09/02 13:06:29;;;;;;;6.32;4.03;;;;;;;;;;4896696;29;20079;-49
2021/09/02 13:08:57;;;;;;;4.82;3.47;;;;;;;;;;4896835;29;20054;-49
2021/09/02 13:11:24;;;;;;;4.50;3.08;;;;;;;;;;4896583;29;20048;-48
2021/09/02 13:13:51;;;;;;;8.32;3.55;;;;;;;;;;4912018;29;20098;-49
2021/09/02 13:16:18;;;;;;;5.32;3.42;;;;;;;;;;4914804;29;20040;-51
2021/09/02 13:18:45;;;;;;;4.40;3.38;;;;;;;;;;4915514;29;20048;-49
2021/09/02 13:21:13;;;;;;;6.00;3.67;;;;;;;;;;4911261;29;20050;-47
2021/09/02 13:23:40;;;;;;;5.40;3.60;;;;;;;;;;4902798;29;20127;-48
2021/09/02 13:26:07;;;;;;;5.88;4.05;;;;;;;;;;4915367;29;20136;-46
2021/09/02 13:28:34;;;;;;;3.95;3.22;;;;;;;;;;4915155;29;20044;-48
2021/09/02 13:31:00;;;;;;;4.20;3.08;;;;;;;;;;4905730;29;20071;-47
2021/09/02 13:33:27;;;;;;;4.90;3.53;;;;;;;;;;4909484;29;20040;-46
2021/09/02 13:35:54;;;;;;;6.38;3.17;;;;;;;;;;4899445;29;20032;-45
2021/09/02 13:38:20;;;;;;;5.47;3.13;;;;;;;;;;4914522;29;20135;-47
2021/09/02 13:40:47;;;;;;;7.75;3.33;;;;;;;;;;4915401;29;20403;-46
2021/09/02 13:43:15;;;;;;;6.95;3.25;;;;;;;;;;4906081;29;20158;-45
2021/09/02 13:45:44;;;;;;;5.38;2.85;;;;;;;;;;4896064;29;20044;-44
2021/09/02 13:48:11;;;;;;;4.25;3.10;;;;;;;;;;4896345;29;20052;-45
2021/09/02 13:50:38;;;;;;;4.68;3.10;;;;;;;;;;4895722;29;20059;-45
2021/09/02 13:53:07;;;;;;;4.47;3.08;;;;;;;;;;4900955;29;20509;-45
2021/09/02 13:55:34;;;;;;;5.28;3.10;;;;;;;;;;4914969;29;20387;-46
2021/09/02 13:58:00;;;;;;;7.72;3.40;;;;;;;;;;4904785;29;20507;-48
2021/09/02 14:00:27;;;;;;;4.70;3.17;;;;;;;;;;4902845;29;20048;-50
2021/09/02 14:02:54;;;;;;;11.05;3.70;;;;;;;;;;4911310;29;20047;-50
2021/09/02 14:05:21;;;;;;;7.00;3.65;;;;;;;;;;4895284;29;20135;-50
2021/09/02 14:07:48;;;;;;;5.50;3.45;;;;;;;;;;4895875;29;20144;-51
2021/09/02 14:10:14;;;;;;;6.70;3.50;;;;;;;;;;4895946;29;20049;-50
2021/09/02 14:12:41;;;;;;;7.90;3.42;;;;;;;;;;4895918;29;20054;-47
2021/09/02 14:15:10;;;;;;;7.82;4.20;;;;;;;;;;4895826;29;20067;-48
2021/09/02 14:17:37;;;;;;;5.85;3.65;;;;;;;;;;4895753;29;20119;-48
2021/09/02 14:20:04;;;;;;;6.13;3.67;;;;;;;;;;4896109;29;20047;-48
2021/09/02 14:22:32;;;;;;;10.15;3.95;;;;;;;;;;4895935;29;20108;-48
2021/09/02 14:24:58;;;;;;;6.82;3.70;;;;;;;;;;4912870;29;20068;-50
2021/09/02 14:27:25;;;;;;;7.07;3.90;;;;;;;;;;4907707;29;20457;-48
2021/09/02 14:29:52;;;;;;;6.03;3.88;;;;;;;;;;4900028;29;20091;-48
2021/09/02 14:32:18;;;;;;;4.95;3.80;;;;;;;;;;4899702;29;20063;-50
2021/09/02 14:34:45;;;;;;;8.43;4.03;;;;;;;;;;4903200;29;20044;-51
2021/09/02 14:37:12;;;;;;;5.80;3.80;;;;;;;;;;4899569;29;20070;-49
2021/09/02 14:39:39;;;;;;;6.15;4.40;;;;;;;;;;4899343;29;20049;-48
2021/09/02 14:42:06;;;;;;;5.85;3.88;;;;;;;;;;4899353;29;20045;-49